sensor_id;sensor_type;location;lat;lon;timestamp;pressure;altitude;pressure_sealevel;temperature;humidity
79584;BME280;69053;57.338;18.700;2023-12-04T00:01:19;101600.69;;;-0.36;77.55
79584;BME280;69053;57.338;18.700;2023-12-04T00:04:19;101592.91;;;-0.40;77.82
79584;BME280;69053;57.338;18.700;2023-12-04T00:07:20;101598.75;;;-0.46;78.06
79584;BME280;69053;57.338;18.700;2023-12-04T00:10:20;101607.63;;;-0.45;78.07
79584;BME280;69053;57.338;18.700;2023-12-04T00:13:21;101602.28;;;-0.45;77.59
79584;BME280;69053;57.338;18.700;2023-12-04T00:16:21;101608.75;;;-0.48;77.12
79584;BME280;69053;57.338;18.700;2023-12-04T00:19:22;101608.03;;;-0.50;77.40
79584;BME280;69053;57.338;18.700;2023-12-04T00:22:22;101613.38;;;-0.50;76.93
79584;BME280;69053;57.338;18.700;2023-12-04T00:25:23;101611.75;;;-0.64;76.84
79584;BME280;69053;57.338;18.700;2023-12-04T00:28:24;101614.31;;;-0.62;76.95
79584;BME280;69053;57.338;18.700;2023-12-04T00:31:24;101610.91;;;-0.64;76.81
79584;BME280;69053;57.338;18.700;2023-12-04T00:34:25;101612.88;;;-0.66;76.66
79584;BME280;69053;57.338;18.700;2023-12-04T00:37:26;101619.41;;;-0.82;77.49
79584;BME280;69053;57.338;18.700;2023-12-04T00:40:27;101618.94;;;-0.87;77.02
79584;BME280;69053;57.338;18.700;2023-12-04T00:43:28;101626.72;;;-0.84;77.02
79584;BME280;69053;57.338;18.700;2023-12-04T00:46:28;101620.75;;;-0.87;77.31
79584;BME280;69053;57.338;18.700;2023-12-04T00:49:28;101612.00;;;-0.89;77.25
79584;BME280;69053;57.338;18.700;2023-12-04T00:52:29;101622.81;;;-0.91;76.59
79584;BME280;69053;57.338;18.700;2023-12-04T00:55:29;101618.66;;;-0.95;77.38
79584;BME280;69053;57.338;18.700;2023-12-04T00:58:30;101619.38;;;-0.93;77.22
79584;BME280;69053;57.338;18.700;2023-12-04T01:01:30;101625.63;;;-0.92;77.42
79584;BME280;69053;57.338;18.700;2023-12-04T01:04:31;101625.63;;;-0.92;77.17
79584;BME280;69053;57.338;18.700;2023-12-04T01:07:32;101626.94;;;-0.87;76.91
79584;BME280;69053;57.338;18.700;2023-12-04T01:10:32;101627.69;;;-0.85;77.42
79584;BME280;69053;57.338;18.700;2023-12-04T01:13:33;101624.16;;;-0.85;76.66
79584;BME280;69053;57.338;18.700;2023-12-04T01:16:33;101618.09;;;-0.87;77.37
79584;BME280;69053;57.338;18.700;2023-12-04T01:19:34;101621.59;;;-0.87;77.20
79584;BME280;69053;57.338;18.700;2023-12-04T01:22:34;101630.47;;;-0.86;76.87
79584;BME280;69053;57.338;18.700;2023-12-04T01:25:35;101623.16;;;-0.84;76.51
79584;BME280;69053;57.338;18.700;2023-12-04T01:28:35;101620.03;;;-0.89;77.04
79584;BME280;69053;57.338;18.700;2023-12-04T01:31:35;101626.00;;;-0.86;77.24
79584;BME280;69053;57.338;18.700;2023-12-04T01:34:36;101625.00;;;-0.85;76.87
79584;BME280;69053;57.338;18.700;2023-12-04T01:37:37;101633.25;;;-0.88;76.70
79584;BME280;69053;57.338;18.700;2023-12-04T01:40:38;101625.50;;;-0.91;77.24
79584;BME280;69053;57.338;18.700;2023-12-04T01:43:38;101631.69;;;-0.90;77.10
79584;BME280;69053;57.338;18.700;2023-12-04T01:46:39;101636.53;;;-0.96;76.92
79584;BME280;69053;57.338;18.700;2023-12-04T01:49:40;101632.16;;;-0.97;76.76
79584;BME280;69053;57.338;18.700;2023-12-04T01:52:40;101624.38;;;-1.00;76.11
79584;BME280;69053;57.338;18.700;2023-12-04T01:55:41;101622.06;;;-1.04;76.54
79584;BME280;69053;57.338;18.700;2023-12-04T01:58:42;101624.25;;;-1.09;76.52
79584;BME280;69053;57.338;18.700;2023-12-04T02:01:43;101626.75;;;-1.19;76.93
79584;BME280;69053;57.338;18.700;2023-12-04T02:04:44;101622.50;;;-1.22;76.67
79584;BME280;69053;57.338;18.700;2023-12-04T02:07:44;101618.97;;;-1.22;76.89
79584;BME280;69053;57.338;18.700;2023-12-04T02:10:45;101626.88;;;-1.21;76.45
79584;BME280;69053;57.338;18.700;2023-12-04T02:13:45;101615.44;;;-1.23;76.80
79584;BME280;69053;57.338;18.700;2023-12-04T02:16:47;101623.69;;;-1.26;76.25
79584;BME280;69053;57.338;18.700;2023-12-04T02:19:48;101625.19;;;-1.22;76.05
79584;BME280;69053;57.338;18.700;2023-12-04T02:22:49;101623.13;;;-1.18;76.46
79584;BME280;69053;57.338;18.700;2023-12-04T02:25:50;101630.78;;;-1.14;76.00
79584;BME280;69053;57.338;18.700;2023-12-04T02:28:55;101621.56;;;-1.09;76.05
79584;BME280;69053;57.338;18.700;2023-12-04T02:31:59;101630.78;;;-1.14;75.90
79584;BME280;69053;57.338;18.700;2023-12-04T02:35:04;101622.03;;;-1.16;75.92
79584;BME280;69053;57.338;18.700;2023-12-04T02:38:05;101618.38;;;-1.15;75.05
79584;BME280;69053;57.338;18.700;2023-12-04T02:41:07;101622.53;;;-1.10;75.07
79584;BME280;69053;57.338;18.700;2023-12-04T02:44:07;101619.13;;;-1.13;74.97
79584;BME280;69053;57.338;18.700;2023-12-04T02:47:08;101630.41;;;-1.20;74.21
79584;BME280;69053;57.338;18.700;2023-12-04T02:50:08;101630.53;;;-1.22;74.07
79584;BME280;69053;57.338;18.700;2023-12-04T02:53:08;101628.66;;;-1.33;74.30
79584;BME280;69053;57.338;18.700;2023-12-04T02:56:09;101633.78;;;-1.29;74.00
79584;BME280;69053;57.338;18.700;2023-12-04T02:59:10;101634.88;;;-1.32;73.97
79584;BME280;69053;57.338;18.700;2023-12-04T03:02:10;101638.00;;;-1.38;74.11
79584;BME280;69053;57.338;18.700;2023-12-04T03:05:11;101636.63;;;-1.44;74.18
79584;BME280;69053;57.338;18.700;2023-12-04T03:08:11;101634.59;;;-1.40;73.75
79584;BME280;69053;57.338;18.700;2023-12-04T03:11:13;101632.03;;;-1.42;73.54
79584;BME280;69053;57.338;18.700;2023-12-04T03:14:14;101639.44;;;-1.45;73.58
79584;BME280;69053;57.338;18.700;2023-12-04T03:17:14;101624.81;;;-1.53;73.80
79584;BME280;69053;57.338;18.700;2023-12-04T03:20:15;101632.66;;;-1.62;73.98
79584;BME280;69053;57.338;18.700;2023-12-04T03:23:15;101634.50;;;-1.63;73.80
79584;BME280;69053;57.338;18.700;2023-12-04T03:26:16;101628.53;;;-1.66;73.39
79584;BME280;69053;57.338;18.700;2023-12-04T03:29:16;101627.41;;;-1.75;73.28
79584;BME280;69053;57.338;18.700;2023-12-04T03:32:16;101637.56;;;-1.80;74.00
79584;BME280;69053;57.338;18.700;2023-12-04T03:35:17;101634.59;;;-1.89;73.48
79584;BME280;69053;57.338;18.700;2023-12-04T03:38:17;101635.03;;;-1.95;73.71
79584;BME280;69053;57.338;18.700;2023-12-04T03:41:18;101636.44;;;-2.02;73.77
79584;BME280;69053;57.338;18.700;2023-12-04T03:44:18;101633.69;;;-2.13;73.64
79584;BME280;69053;57.338;18.700;2023-12-04T03:47:19;101636.94;;;-2.21;73.88
79584;BME280;69053;57.338;18.700;2023-12-04T03:50:19;101629.59;;;-2.30;73.77
79584;BME280;69053;57.338;18.700;2023-12-04T03:53:19;101635.56;;;-2.39;74.03
79584;BME280;69053;57.338;18.700;2023-12-04T03:56:20;101638.06;;;-2.49;74.57
79584;BME280;69053;57.338;18.700;2023-12-04T03:59:20;101634.44;;;-2.61;74.70
79584;BME280;69053;57.338;18.700;2023-12-04T04:02:21;101636.69;;;-2.68;74.76
79584;BME280;69053;57.338;18.700;2023-12-04T04:05:21;101630.81;;;-2.73;75.03
79584;BME280;69053;57.338;18.700;2023-12-04T04:08:22;101632.50;;;-2.72;74.73
79584;BME280;69053;57.338;18.700;2023-12-04T04:11:22;101628.44;;;-2.77;75.09
79584;BME280;69053;57.338;18.700;2023-12-04T04:14:22;101626.00;;;-2.80;74.77
79584;BME280;69053;57.338;18.700;2023-12-04T04:17:24;101639.56;;;-2.84;75.22
79584;BME280;69053;57.338;18.700;2023-12-04T04:20:26;101635.50;;;-2.89;75.26
79584;BME280;69053;57.338;18.700;2023-12-04T04:23:26;101639.22;;;-2.92;75.42
79584;BME280;69053;57.338;18.700;2023-12-04T04:26:27;101633.47;;;-2.98;75.34
79584;BME280;69053;57.338;18.700;2023-12-04T04:29:27;101644.63;;;-3.06;75.27
79584;BME280;69053;57.338;18.700;2023-12-04T04:32:28;101637.94;;;-3.12;75.49
79584;BME280;69053;57.338;18.700;2023-12-04T04:35:28;101635.56;;;-3.16;75.72
79584;BME280;69053;57.338;18.700;2023-12-04T04:38:28;101639.31;;;-3.19;75.74
79584;BME280;69053;57.338;18.700;2023-12-04T04:41:29;101644.00;;;-3.23;75.82
79584;BME280;69053;57.338;18.700;2023-12-04T04:44:29;101637.03;;;-3.25;75.70
79584;BME280;69053;57.338;18.700;2023-12-04T04:47:30;101646.97;;;-3.27;76.10
79584;BME280;69053;57.338;18.700;2023-12-04T04:50:31;101642.47;;;-3.27;75.66
79584;BME280;69053;57.338;18.700;2023-12-04T04:53:31;101637.13;;;-3.27;75.63
79584;BME280;69053;57.338;18.700;2023-12-04T04:56:31;101651.34;;;-3.26;75.46
79584;BME280;69053;57.338;18.700;2023-12-04T04:59:32;101647.16;;;-3.30;75.76
79584;BME280;69053;57.338;18.700;2023-12-04T05:02:32;101651.97;;;-3.23;75.52
79584;BME280;69053;57.338;18.700;2023-12-04T05:05:34;101648.88;;;-3.16;75.54
79584;BME280;69053;57.338;18.700;2023-12-04T05:08:35;101646.13;;;-3.15;75.76
79584;BME280;69053;57.338;18.700;2023-12-04T05:11:35;101653.38;;;-3.17;75.55
79584;BME280;69053;57.338;18.700;2023-12-04T05:14:36;101650.31;;;-3.11;75.61
79584;BME280;69053;57.338;18.700;2023-12-04T05:17:36;101644.88;;;-3.09;74.84
79584;BME280;69053;57.338;18.700;2023-12-04T05:20:37;101646.47;;;-3.07;74.80
79584;BME280;69053;57.338;18.700;2023-12-04T05:23:38;101644.63;;;-3.06;74.71
79584;BME280;69053;57.338;18.700;2023-12-04T05:26:38;101641.22;;;-3.08;75.37
79584;BME280;69053;57.338;18.700;2023-12-04T05:29:38;101645.91;;;-3.12;74.98
79584;BME280;69053;57.338;18.700;2023-12-04T05:32:39;101652.53;;;-3.05;75.09
79584;BME280;69053;57.338;18.700;2023-12-04T05:35:39;101645.81;;;-2.97;75.47
79584;BME280;69053;57.338;18.700;2023-12-04T05:38:40;101645.31;;;-2.90;75.43
79584;BME280;69053;57.338;18.700;2023-12-04T05:41:40;101653.00;;;-2.85;76.21
79584;BME280;69053;57.338;18.700;2023-12-04T05:44:40;101650.75;;;-2.66;75.93
79584;BME280;69053;57.338;18.700;2023-12-04T05:47:41;101653.53;;;-2.54;76.09
79584;BME280;69053;57.338;18.700;2023-12-04T05:50:41;101652.31;;;-2.37;75.87
79584;BME280;69053;57.338;18.700;2023-12-04T05:53:42;101637.25;;;-2.26;75.22
79584;BME280;69053;57.338;18.700;2023-12-04T05:56:42;101644.03;;;-2.09;74.83
79584;BME280;69053;57.338;18.700;2023-12-04T05:59:43;101634.00;;;-2.05;74.38
79584;BME280;69053;57.338;18.700;2023-12-04T06:02:44;101644.03;;;-1.96;74.62
79584;BME280;69053;57.338;18.700;2023-12-04T06:05:45;101645.50;;;-1.92;74.44
79584;BME280;69053;57.338;18.700;2023-12-04T06:08:45;101650.09;;;-1.94;74.55
79584;BME280;69053;57.338;18.700;2023-12-04T06:11:46;101636.28;;;-1.88;74.10
79584;BME280;69053;57.338;18.700;2023-12-04T06:14:46;101639.09;;;-1.89;74.23
79584;BME280;69053;57.338;18.700;2023-12-04T06:17:47;101643.84;;;-1.81;74.02
79584;BME280;69053;57.338;18.700;2023-12-04T06:20:47;101638.41;;;-1.80;74.31
79584;BME280;69053;57.338;18.700;2023-12-04T06:23:48;101642.66;;;-1.77;73.98
79584;BME280;69053;57.338;18.700;2023-12-04T06:26:50;101643.84;;;-1.81;73.69
79584;BME280;69053;57.338;18.700;2023-12-04T06:29:51;101644.38;;;-1.76;74.44
79584;BME280;69053;57.338;18.700;2023-12-04T06:32:52;101651.44;;;-1.75;73.83
79584;BME280;69053;57.338;18.700;2023-12-04T06:35:53;101648.47;;;-1.83;73.42
79584;BME280;69053;57.338;18.700;2023-12-04T06:38:54;101636.94;;;-1.84;72.88
79584;BME280;69053;57.338;18.700;2023-12-04T06:41:55;101644.47;;;-1.78;72.95
79584;BME280;69053;57.338;18.700;2023-12-04T06:44:56;101646.19;;;-1.77;72.56
79584;BME280;69053;57.338;18.700;2023-12-04T06:47:57;101648.97;;;-1.78;71.96
79584;BME280;69053;57.338;18.700;2023-12-04T06:50:59;101651.19;;;-1.72;71.63
79584;BME280;69053;57.338;18.700;2023-12-04T06:53:59;101653.13;;;-1.74;71.67
79584;BME280;69053;57.338;18.700;2023-12-04T06:56:59;101654.31;;;-1.78;71.86
79584;BME280;69053;57.338;18.700;2023-12-04T07:00:00;101652.91;;;-1.71;71.55
79584;BME280;69053;57.338;18.700;2023-12-04T07:03:00;101665.75;;;-1.76;71.82
79584;BME280;69053;57.338;18.700;2023-12-04T07:06:01;101655.69;;;-1.73;71.95
79584;BME280;69053;57.338;18.700;2023-12-04T07:09:02;101655.56;;;-1.71;72.09
79584;BME280;69053;57.338;18.700;2023-12-04T07:12:02;101650.56;;;-1.76;71.89
79584;BME280;69053;57.338;18.700;2023-12-04T07:15:03;101653.06;;;-1.85;72.17
79584;BME280;69053;57.338;18.700;2023-12-04T07:18:03;101657.09;;;-1.80;72.15
79584;BME280;69053;57.338;18.700;2023-12-04T07:21:04;101658.16;;;-1.82;71.95
79584;BME280;69053;57.338;18.700;2023-12-04T07:24:05;101658.56;;;-1.76;71.69
79584;BME280;69053;57.338;18.700;2023-12-04T07:27:05;101666.47;;;-1.74;71.90
79584;BME280;69053;57.338;18.700;2023-12-04T07:30:06;101665.53;;;-1.73;71.96
79584;BME280;69053;57.338;18.700;2023-12-04T07:33:07;101663.59;;;-1.71;71.90
79584;BME280;69053;57.338;18.700;2023-12-04T07:36:07;101673.19;;;-1.68;71.64
79584;BME280;69053;57.338;18.700;2023-12-04T07:39:08;101678.66;;;-1.70;71.69
79584;BME280;69053;57.338;18.700;2023-12-04T07:42:09;101677.88;;;-1.72;72.03
79584;BME280;69053;57.338;18.700;2023-12-04T07:45:10;101674.44;;;-1.85;71.65
79584;BME280;69053;57.338;18.700;2023-12-04T07:48:10;101671.19;;;-1.78;71.37
79584;BME280;69053;57.338;18.700;2023-12-04T07:51:11;101674.50;;;-1.74;71.78
79584;BME280;69053;57.338;18.700;2023-12-04T07:54:11;101672.56;;;-1.72;71.20
79584;BME280;69053;57.338;18.700;2023-12-04T07:57:12;101667.56;;;-1.77;71.58
79584;BME280;69053;57.338;18.700;2023-12-04T08:00:13;101672.56;;;-1.72;71.64
79584;BME280;69053;57.338;18.700;2023-12-04T08:03:14;101666.88;;;-1.67;71.59
79584;BME280;69053;57.338;18.700;2023-12-04T08:06:14;101664.31;;;-1.69;71.44
79584;BME280;69053;57.338;18.700;2023-12-04T08:09:16;101670.50;;;-1.68;71.55
79584;BME280;69053;57.338;18.700;2023-12-04T08:12:17;101679.41;;;-1.68;71.38
79584;BME280;69053;57.338;18.700;2023-12-04T08:15:17;101671.94;;;-1.76;71.67
79584;BME280;69053;57.338;18.700;2023-12-04T08:18:17;101671.03;;;-1.63;71.49
79584;BME280;69053;57.338;18.700;2023-12-04T08:21:18;101673.19;;;-1.68;71.45
79584;BME280;69053;57.338;18.700;2023-12-04T08:24:18;101685.16;;;-1.61;70.98
79584;BME280;69053;57.338;18.700;2023-12-04T08:27:19;101684.66;;;-1.55;71.43
79584;BME280;69053;57.338;18.700;2023-12-04T08:30:20;101690.75;;;-1.53;71.32
79584;BME280;69053;57.338;18.700;2023-12-04T08:33:20;101687.22;;;-1.54;71.16
79584;BME280;69053;57.338;18.700;2023-12-04T08:36:21;101690.63;;;-1.52;70.81
79584;BME280;69053;57.338;18.700;2023-12-04T08:39:21;101694.81;;;-1.47;70.83
79584;BME280;69053;57.338;18.700;2023-12-04T08:42:22;101691.84;;;-1.56;71.36
79584;BME280;69053;57.338;18.700;2023-12-04T08:45:23;101697.59;;;-1.49;71.05
79584;BME280;69053;57.338;18.700;2023-12-04T08:48:23;101695.47;;;-1.57;71.25
79584;BME280;69053;57.338;18.700;2023-12-04T08:51:23;101695.13;;;-1.52;71.33
79584;BME280;69053;57.338;18.700;2023-12-04T08:54:24;101700.69;;;-1.55;71.11
79584;BME280;69053;57.338;18.700;2023-12-04T08:57:25;101713.53;;;-1.60;71.20
79584;BME280;69053;57.338;18.700;2023-12-04T09:00:25;101697.81;;;-1.52;71.07
79584;BME280;69053;57.338;18.700;2023-12-04T09:03:26;101703.06;;;-1.63;70.62
79584;BME280;69053;57.338;18.700;2023-12-04T09:06:26;101702.00;;;-1.61;70.31
79584;BME280;69053;57.338;18.700;2023-12-04T09:09:26;101706.50;;;-1.61;70.41
79584;BME280;69053;57.338;18.700;2023-12-04T09:12:27;101698.25;;;-1.58;70.36
79584;BME280;69053;57.338;18.700;2023-12-04T09:15:27;101702.44;;;-1.67;70.44
79584;BME280;69053;57.338;18.700;2023-12-04T09:18:28;101702.81;;;-1.72;69.78
79584;BME280;69053;57.338;18.700;2023-12-04T09:21:28;101702.75;;;-1.59;69.34
79584;BME280;69053;57.338;18.700;2023-12-04T09:24:29;101703.25;;;-1.54;69.47
79584;BME280;69053;57.338;18.700;2023-12-04T09:27:31;101700.38;;;-1.51;68.71
79584;BME280;69053;57.338;18.700;2023-12-04T09:30:31;101701.22;;;-1.50;68.51
79584;BME280;69053;57.338;18.700;2023-12-04T09:33:32;101704.97;;;-1.53;68.41
79584;BME280;69053;57.338;18.700;2023-12-04T09:36:32;101702.44;;;-1.67;67.52
79584;BME280;69053;57.338;18.700;2023-12-04T09:39:33;101703.06;;;-1.63;67.63
79584;BME280;69053;57.338;18.700;2023-12-04T09:42:34;101702.69;;;-1.70;67.99
79584;BME280;69053;57.338;18.700;2023-12-04T09:45:34;101706.47;;;-1.85;67.72
79584;BME280;69053;57.338;18.700;2023-12-04T09:48:36;101709.44;;;-1.77;67.90
79584;BME280;69053;57.338;18.700;2023-12-04T09:51:38;101711.44;;;-1.68;67.60
79584;BME280;69053;57.338;18.700;2023-12-04T09:54:38;101707.78;;;-1.67;67.86
79584;BME280;69053;57.338;18.700;2023-12-04T09:57:40;101707.88;;;-1.56;67.99
79584;BME280;69053;57.338;18.700;2023-12-04T10:00:42;101701.69;;;-1.56;68.18
79584;BME280;69053;57.338;18.700;2023-12-04T10:03:44;101708.84;;;-1.57;68.22
79584;BME280;69053;57.338;18.700;2023-12-04T10:06:45;101701.81;;;-1.58;68.11
79584;BME280;69053;57.338;18.700;2023-12-04T10:09:46;101697.53;;;-1.60;68.29
79584;BME280;69053;57.338;18.700;2023-12-04T10:12:46;101711.59;;;-1.58;68.80
79584;BME280;69053;57.338;18.700;2023-12-04T10:15:48;101707.34;;;-1.61;68.26
79584;BME280;69053;57.338;18.700;2023-12-04T10:18:48;101708.22;;;-1.60;68.55
79584;BME280;69053;57.338;18.700;2023-12-04T10:21:50;101710.66;;;-1.57;68.69
79584;BME280;69053;57.338;18.700;2023-12-04T10:24:51;101717.31;;;-1.63;68.90
79584;BME280;69053;57.338;18.700;2023-12-04T10:27:51;101712.50;;;-1.71;68.95
79584;BME280;69053;57.338;18.700;2023-12-04T10:30:53;101708.25;;;-1.73;69.17
79584;BME280;69053;57.338;18.700;2023-12-04T10:33:54;101711.16;;;-1.76;69.28
79584;BME280;69053;57.338;18.700;2023-12-04T10:36:55;101713.09;;;-1.78;69.22
79584;BME280;69053;57.338;18.700;2023-12-04T10:39:55;101709.69;;;-1.80;69.14
79584;BME280;69053;57.338;18.700;2023-12-04T10:43:22;101706.25;;;-1.82;69.69
79584;BME280;69053;57.338;18.700;2023-12-04T10:46:24;101714.25;;;-1.82;69.35
79584;BME280;69053;57.338;18.700;2023-12-04T10:49:29;101709.38;;;-1.89;69.79
79584;BME280;69053;57.338;18.700;2023-12-04T10:52:30;101712.00;;;-1.76;69.61
79584;BME280;69053;57.338;18.700;2023-12-04T10:55:32;101713.31;;;-1.81;69.50
79584;BME280;69053;57.338;18.700;2023-12-04T10:58:33;101711.53;;;-1.94;70.03
79584;BME280;69053;57.338;18.700;2023-12-04T11:01:34;101724.75;;;-1.92;69.75
79584;BME280;69053;57.338;18.700;2023-12-04T11:04:36;101736.28;;;-1.92;70.10
79584;BME280;69053;57.338;18.700;2023-12-04T11:07:41;101732.56;;;-1.89;69.92
79584;BME280;69053;57.338;18.700;2023-12-04T11:10:56;101733.41;;;-1.89;69.75
79584;BME280;69053;57.338;18.700;2023-12-04T11:14:01;101729.16;;;-2.04;68.63
79584;BME280;69053;57.338;18.700;2023-12-04T11:17:04;101730.63;;;-2.00;69.07
79584;BME280;69053;57.338;18.700;2023-12-04T11:20:13;101730.56;;;-2.11;68.94
79584;BME280;69053;57.338;18.700;2023-12-04T11:23:17;101729.78;;;-2.00;69.22
79584;BME280;69053;57.338;18.700;2023-12-04T11:26:17;101727.00;;;-1.99;68.75
79584;BME280;69053;57.338;18.700;2023-12-04T11:29:19;101724.25;;;-1.97;68.96
79584;BME280;69053;57.338;18.700;2023-12-04T11:32:24;101730.63;;;-2.00;68.92
79584;BME280;69053;57.338;18.700;2023-12-04T11:35:27;101734.41;;;-2.02;69.17
79584;BME280;69053;57.338;18.700;2023-12-04T11:38:30;101724.44;;;-2.13;68.87
79584;BME280;69053;57.338;18.700;2023-12-04T11:41:30;101726.56;;;-1.93;68.71
79584;BME280;69053;57.338;18.700;2023-12-04T11:44:32;101726.97;;;-1.86;68.64
79584;BME280;69053;57.338;18.700;2023-12-04T11:47:52;101721.69;;;-1.99;68.95
79584;BME280;69053;57.338;18.700;2023-12-04T11:50:56;101724.13;;;-1.96;68.98
79584;BME280;69053;57.338;18.700;2023-12-04T11:53:57;101734.56;;;-1.93;69.12
79584;BME280;69053;57.338;18.700;2023-12-04T11:56:59;101741.13;;;-2.22;69.31
79584;BME280;69053;57.338;18.700;2023-12-04T12:00:11;101735.91;;;-2.37;69.66
79584;BME280;69053;57.338;18.700;2023-12-04T12:03:14;101735.38;;;-2.42;69.62
79584;BME280;69053;57.338;18.700;2023-12-04T12:06:15;101737.84;;;-2.39;69.76
79584;BME280;69053;57.338;18.700;2023-12-04T12:09:16;101748.28;;;-2.49;70.26
79584;BME280;69053;57.338;18.700;2023-12-04T12:12:17;101735.59;;;-2.45;70.26
79584;BME280;69053;57.338;18.700;2023-12-04T12:15:18;101731.22;;;-2.33;69.77
79584;BME280;69053;57.338;18.700;2023-12-04T12:18:18;101735.47;;;-2.31;70.08
79584;BME280;69053;57.338;18.700;2023-12-04T12:21:19;101735.06;;;-2.50;70.42
79584;BME280;69053;57.338;18.700;2023-12-04T12:24:19;101732.25;;;-2.36;70.42
79584;BME280;69053;57.338;18.700;2023-12-04T12:27:20;101737.19;;;-2.30;70.00
79584;BME280;69053;57.338;18.700;2023-12-04T12:30:20;101740.91;;;-2.32;70.50
79584;BME280;69053;57.338;18.700;2023-12-04T12:33:21;101735.16;;;-2.39;71.06
79584;BME280;69053;57.338;18.700;2023-12-04T12:36:23;101740.38;;;-2.50;71.21
79584;BME280;69053;57.338;18.700;2023-12-04T12:39:23;101734.63;;;-2.44;71.39
79584;BME280;69053;57.338;18.700;2023-12-04T12:42:25;101737.06;;;-2.41;71.09
79584;BME280;69053;57.338;18.700;2023-12-04T12:45:25;101737.81;;;-2.52;72.05
79584;BME280;69053;57.338;18.700;2023-12-04T12:48:26;101750.72;;;-2.58;72.05
79584;BME280;69053;57.338;18.700;2023-12-04T12:51:28;101737.81;;;-2.65;72.48
79584;BME280;69053;57.338;18.700;2023-12-04T12:54:28;101741.13;;;-2.61;72.16
79584;BME280;69053;57.338;18.700;2023-12-04T12:57:32;101724.50;;;-2.65;72.60
79584;BME280;69053;57.338;18.700;2023-12-04T13:00:34;101734.38;;;-2.67;72.45
79584;BME280;69053;57.338;18.700;2023-12-04T13:03:35;101739.84;;;-2.68;72.46
79584;BME280;69053;57.338;18.700;2023-12-04T13:06:36;101738.22;;;-2.84;72.51
79584;BME280;69053;57.338;18.700;2023-12-04T13:09:37;101741.84;;;-2.72;71.99
79584;BME280;69053;57.338;18.700;2023-12-04T13:12:37;101746.97;;;-2.69;71.82
79584;BME280;69053;57.338;18.700;2023-12-04T13:15:38;101742.72;;;-2.58;70.89
79584;BME280;69053;57.338;18.700;2023-12-04T13:18:38;101746.03;;;-2.55;70.45
79584;BME280;69053;57.338;18.700;2023-12-04T13:21:39;101743.25;;;-2.53;70.64
79584;BME280;69053;57.338;18.700;2023-12-04T13:24:39;101747.31;;;-2.60;69.93
79584;BME280;69053;57.338;18.700;2023-12-04T13:27:41;101746.56;;;-2.50;69.73
79584;BME280;69053;57.338;18.700;2023-12-04T13:30:41;101760.75;;;-2.75;70.25
79584;BME280;69053;57.338;18.700;2023-12-04T13:33:43;101757.59;;;-2.94;70.36
79584;BME280;69053;57.338;18.700;2023-12-04T13:36:46;101758.22;;;-3.04;70.69
79584;BME280;69053;57.338;18.700;2023-12-04T13:39:46;101764.09;;;-2.98;70.37
79584;BME280;69053;57.338;18.700;2023-12-04T13:42:57;101760.81;;;-2.89;69.95
79584;BME280;69053;57.338;18.700;2023-12-04T13:46:17;101773.00;;;-2.85;69.90
79584;BME280;69053;57.338;18.700;2023-12-04T13:49:18;101770.31;;;-2.85;70.30
79584;BME280;69053;57.338;18.700;2023-12-04T13:52:19;101764.88;;;-2.84;70.56
79584;BME280;69053;57.338;18.700;2023-12-04T13:55:25;101760.59;;;-2.86;70.92
79584;BME280;69053;57.338;18.700;2023-12-04T13:58:50;101770.38;;;-2.99;70.82
79584;BME280;69053;57.338;18.700;2023-12-04T14:01:56;101760.25;;;-2.94;70.12
79584;BME280;69053;57.338;18.700;2023-12-04T14:05:00;101766.34;;;-2.92;70.86
79584;BME280;69053;57.338;18.700;2023-12-04T14:08:00;101761.00;;;-2.92;70.51
79584;BME280;69053;57.338;18.700;2023-12-04T14:11:03;101765.94;;;-2.86;70.57
79584;BME280;69053;57.338;18.700;2023-12-04T14:14:03;101760.19;;;-2.80;70.52
79584;BME280;69053;57.338;18.700;2023-12-04T14:17:04;101770.41;;;-2.87;70.33
79584;BME280;69053;57.338;18.700;2023-12-04T14:20:06;101764.00;;;-2.84;70.22
79584;BME280;69053;57.338;18.700;2023-12-04T14:23:15;101756.13;;;-2.86;70.60
79584;BME280;69053;57.338;18.700;2023-12-04T14:26:16;101762.97;;;-2.81;70.41
79584;BME280;69053;57.338;18.700;2023-12-04T14:29:16;101755.41;;;-2.75;70.22
79584;BME280;69053;57.338;18.700;2023-12-04T14:32:17;101757.31;;;-2.77;70.47
79584;BME280;69053;57.338;18.700;2023-12-04T14:35:19;101765.53;;;-2.80;70.38
79584;BME280;69053;57.338;18.700;2023-12-04T14:38:20;101753.25;;;-2.83;70.51
79584;BME280;69053;57.338;18.700;2023-12-04T14:41:20;101764.88;;;-2.84;70.90
79584;BME280;69053;57.338;18.700;2023-12-04T14:44:21;101762.00;;;-2.80;70.08
79584;BME280;69053;57.338;18.700;2023-12-04T14:47:21;101771.31;;;-2.73;70.21
79584;BME280;69053;57.338;18.700;2023-12-04T14:50:22;101771.63;;;-2.78;70.31
79584;BME280;69053;57.338;18.700;2023-12-04T14:53:23;101768.50;;;-2.85;70.85
79584;BME280;69053;57.338;18.700;2023-12-04T14:56:41;101769.34;;;-2.84;70.67
79584;BME280;69053;57.338;18.700;2023-12-04T15:00:02;101778.09;;;-2.82;70.91
79584;BME280;69053;57.338;18.700;2023-12-04T15:03:21;101767.66;;;-2.85;70.98
79584;BME280;69053;57.338;18.700;2023-12-04T15:06:57;101773.84;;;-2.85;71.35
79584;BME280;69053;57.338;18.700;2023-12-04T15:10:16;101776.19;;;-2.80;71.14
79584;BME280;69053;57.338;18.700;2023-12-04T15:13:29;101775.97;;;-2.77;71.36
79584;BME280;69053;57.338;18.700;2023-12-04T15:16:47;101779.41;;;-2.75;70.88
79584;BME280;69053;57.338;18.700;2023-12-04T15:19:53;101781.44;;;-2.78;71.06
79584;BME280;69053;57.338;18.700;2023-12-04T15:23:15;101775.78;;;-2.74;71.62
79584;BME280;69053;57.338;18.700;2023-12-04T15:26:19;101776.66;;;-2.73;71.46
79584;BME280;69053;57.338;18.700;2023-12-04T15:29:20;101776.75;;;-2.75;71.15
79584;BME280;69053;57.338;18.700;2023-12-04T15:32:21;101781.09;;;-2.74;71.58
79584;BME280;69053;57.338;18.700;2023-12-04T15:35:22;101778.78;;;-2.78;72.02
79584;BME280;69053;57.338;18.700;2023-12-04T15:38:22;101771.72;;;-2.79;72.08